sensor_id;sensor_type;location;lat;lon;timestamp;pressure;altitude;pressure_sealevel;temperature;humidity
69796;BME280;57073;45.650;9.612;2023-01-16T00:04:56;98288.91;;;7.91;78.13
69796;BME280;57073;45.650;9.612;2023-01-16T00:14:57;98264.19;;;7.95;78.03
69796;BME280;57073;45.650;9.612;2023-01-16T00:24:57;98247.78;;;7.92;77.00
69796;BME280;57073;45.650;9.612;2023-01-16T00:34:58;98230.72;;;7.93;75.54
69796;BME280;57073;45.650;9.612;2023-01-16T00:44:58;98222.34;;;7.89;75.33
69796;BME280;57073;45.650;9.612;2023-01-16T00:54:58;98231.97;;;7.90;75.38
69796;BME280;57073;45.650;9.612;2023-01-16T01:04:59;98223.47;;;7.81;75.08
69796;BME280;57073;45.650;9.612;2023-01-16T01:14:59;98221.84;;;7.80;74.91
69796;BME280;57073;45.650;9.612;2023-01-16T01:25:00;98212.44;;;7.78;74.24
69796;BME280;57073;45.650;9.612;2023-01-16T01:35:00;98205.22;;;7.78;74.98
69796;BME280;57073;45.650;9.612;2023-01-16T01:45:05;98201.06;;;7.82;73.92
69796;BME280;57073;45.650;9.612;2023-01-16T01:55:08;98174.34;;;7.82;73.61
69796;BME280;57073;45.650;9.612;2023-01-16T02:05:13;98170.16;;;7.86;73.40
69796;BME280;57073;45.650;9.612;2023-01-16T02:15:19;98150.59;;;7.93;74.08
69796;BME280;57073;45.650;9.612;2023-01-16T02:35:53;98112.47;;;7.85;72.70
69796;BME280;57073;45.650;9.612;2023-01-16T02:56:06;98077.22;;;7.65;74.26
69796;BME280;57073;45.650;9.612;2023-01-16T03:06:16;98042.91;;;7.80;74.59
69796;BME280;57073;45.650;9.612;2023-01-16T03:16:33;98029.84;;;7.72;74.44
69796;BME280;57073;45.650;9.612;2023-01-16T03:26:43;97997.25;;;7.70;73.87
69796;BME280;57073;45.650;9.612;2023-01-16T03:37:31;98017.56;;;7.71;75.16
69796;BME280;57073;45.650;9.612;2023-01-16T03:47:45;98004.78;;;7.73;74.17
69796;BME280;57073;45.650;9.612;2023-01-16T03:57:51;97987.50;;;7.76;74.00
69796;BME280;57073;45.650;9.612;2023-01-16T04:08:00;97958.13;;;7.64;74.67
69796;BME280;57073;45.650;9.612;2023-01-16T04:18:01;97943.84;;;7.58;74.16
69796;BME280;57073;45.650;9.612;2023-01-16T04:28:02;97920.28;;;7.43;74.57
69796;BME280;57073;45.650;9.612;2023-01-16T04:38:02;97906.31;;;7.41;73.88
69796;BME280;57073;45.650;9.612;2023-01-16T04:48:03;97913.53;;;7.53;73.49
69796;BME280;57073;45.650;9.612;2023-01-16T04:58:03;97886.94;;;7.34;73.43
69796;BME280;57073;45.650;9.612;2023-01-16T05:08:03;97879.41;;;7.31;73.17
69796;BME280;57073;45.650;9.612;2023-01-16T05:18:16;97858.94;;;7.01;72.61
69796;BME280;57073;45.650;9.612;2023-01-16T05:28:16;97839.41;;;6.77;73.29
69796;BME280;57073;45.650;9.612;2023-01-16T05:38:16;97836.06;;;6.82;71.85
69796;BME280;57073;45.650;9.612;2023-01-16T05:48:17;97824.44;;;6.76;71.13
69796;BME280;57073;45.650;9.612;2023-01-16T05:58:17;97809.22;;;6.53;72.12
69796;BME280;57073;45.650;9.612;2023-01-16T06:08:18;97810.47;;;6.39;73.19
69796;BME280;57073;45.650;9.612;2023-01-16T06:18:18;97806.88;;;6.45;72.18
69796;BME280;57073;45.650;9.612;2023-01-16T06:28:19;97798.38;;;6.36;71.65
69796;BME280;57073;45.650;9.612;2023-01-16T06:38:19;97772.66;;;6.30;73.04
69796;BME280;57073;45.650;9.612;2023-01-16T06:48:20;97750.69;;;6.35;73.12
69796;BME280;57073;45.650;9.612;2023-01-16T06:58:21;97740.13;;;6.40;71.75
69796;BME280;57073;45.650;9.612;2023-01-16T07:08:21;97723.41;;;6.32;72.70
69796;BME280;57073;45.650;9.612;2023-01-16T07:18:21;97712.41;;;6.29;73.34
69796;BME280;57073;45.650;9.612;2023-01-16T07:28:40;97719.69;;;5.43;74.45
69796;BME280;57073;45.650;9.612;2023-01-16T07:38:41;97709.00;;;4.87;75.20
69796;BME280;57073;45.650;9.612;2023-01-16T07:48:41;97694.56;;;5.02;75.36
69796;BME280;57073;45.650;9.612;2023-01-16T07:58:42;97701.16;;;5.17;75.09
69796;BME280;57073;45.650;9.612;2023-01-16T08:08:43;97707.47;;;5.16;76.97
69796;BME280;57073;45.650;9.612;2023-01-16T08:18:43;97714.28;;;5.12;76.58
69796;BME280;57073;45.650;9.612;2023-01-16T08:28:44;97715.13;;;5.31;78.31
69796;BME280;57073;45.650;9.612;2023-01-16T08:38:44;97716.00;;;4.63;78.62
69796;BME280;57073;45.650;9.612;2023-01-16T08:48:44;97693.53;;;4.59;78.07
69796;BME280;57073;45.650;9.612;2023-01-16T08:59:03;97694.50;;;4.90;76.73
69796;BME280;57073;45.650;9.612;2023-01-16T09:09:05;97691.25;;;5.06;79.05
69796;BME280;57073;45.650;9.612;2023-01-16T09:19:05;97662.81;;;5.07;78.63
69796;BME280;57073;45.650;9.612;2023-01-16T09:29:08;97624.91;;;4.93;80.73
69796;BME280;57073;45.650;9.612;2023-01-16T09:39:11;97609.50;;;4.83;82.25
69796;BME280;57073;45.650;9.612;2023-01-16T09:49:31;97589.19;;;4.70;81.47
69796;BME280;57073;45.650;9.612;2023-01-16T09:59:42;97570.03;;;4.98;81.38
69796;BME280;57073;45.650;9.612;2023-01-16T10:19:50;97524.34;;;5.08;81.44
69796;BME280;57073;45.650;9.612;2023-01-16T10:30:04;97520.13;;;5.73;79.84
69796;BME280;57073;45.650;9.612;2023-01-16T10:50:16;97457.03;;;5.85;79.24
69796;BME280;57073;45.650;9.612;2023-01-16T11:00:19;97444.41;;;5.69;79.28
69796;BME280;57073;45.650;9.612;2023-01-16T11:10:23;97428.66;;;6.14;78.69
69796;BME280;57073;45.650;9.612;2023-01-16T11:20:34;97381.91;;;5.95;80.56
69796;BME280;57073;45.650;9.612;2023-01-16T11:30:42;97362.34;;;6.13;81.54
69796;BME280;57073;45.650;9.612;2023-01-16T11:40:45;97328.31;;;6.03;82.02
69796;BME280;57073;45.650;9.612;2023-01-16T11:50:47;97300.81;;;5.74;82.39
69796;BME280;57073;45.650;9.612;2023-01-16T12:01:02;97279.47;;;5.98;82.77
69796;BME280;57073;45.650;9.612;2023-01-16T12:11:18;97241.63;;;6.24;80.99
69796;BME280;57073;45.650;9.612;2023-01-16T12:42:34;97207.91;;;6.30;79.99
69796;BME280;57073;45.650;9.612;2023-01-16T13:03:33;97166.41;;;6.51;79.86
69796;BME280;57073;45.650;9.612;2023-01-16T13:13:51;97159.28;;;6.74;79.79
69796;BME280;57073;45.650;9.612;2023-01-16T13:23:57;97156.44;;;6.80;79.21
69796;BME280;57073;45.650;9.612;2023-01-16T13:34:17;97148.06;;;6.71;80.39
69796;BME280;57073;45.650;9.612;2023-01-16T13:44:23;97148.25;;;6.87;81.34
69796;BME280;57073;45.650;9.612;2023-01-16T13:54:44;97139.03;;;6.95;79.50
69796;BME280;57073;45.650;9.612;2023-01-16T14:15:18;97121.09;;;6.90;79.56
69796;BME280;57073;45.650;9.612;2023-01-16T14:25:37;97112.41;;;6.78;79.10
69796;BME280;57073;45.650;9.612;2023-01-16T14:35:46;97088.13;;;6.96;79.62
69796;BME280;57073;45.650;9.612;2023-01-16T14:46:23;97063.81;;;7.15;78.67
69796;BME280;57073;45.650;9.612;2023-01-16T14:56:44;97067.03;;;7.17;78.79
69796;BME280;57073;45.650;9.612;2023-01-16T15:06:55;97044.06;;;7.70;76.89
69796;BME280;57073;45.650;9.612;2023-01-16T15:17:05;97034.44;;;8.01;75.28
69796;BME280;57073;45.650;9.612;2023-01-16T15:27:32;97034.91;;;8.31;74.02
69796;BME280;57073;45.650;9.612;2023-01-16T15:37:35;97027.19;;;7.97;72.23
69796;BME280;57073;45.650;9.612;2023-01-16T15:57:51;97012.69;;;7.55;71.77
69796;BME280;57073;45.650;9.612;2023-01-16T16:07:52;97011.56;;;7.78;71.80
69796;BME280;57073;45.650;9.612;2023-01-16T16:18:01;97006.63;;;7.65;70.75
69796;BME280;57073;45.650;9.612;2023-01-16T16:28:15;97006.53;;;7.49;71.12
69796;BME280;57073;45.650;9.612;2023-01-16T16:38:21;97005.16;;;7.79;71.50
69796;BME280;57073;45.650;9.612;2023-01-16T16:48:29;97014.31;;;7.89;70.75
69796;BME280;57073;45.650;9.612;2023-01-16T16:58:29;97007.88;;;7.84;71.00
69796;BME280;57073;45.650;9.612;2023-01-16T17:08:30;97010.78;;;7.83;71.23
69796;BME280;57073;45.650;9.612;2023-01-16T17:18:30;97015.72;;;7.64;71.07
69796;BME280;57073;45.650;9.612;2023-01-16T17:28:31;97029.56;;;7.61;70.91
69796;BME280;57073;45.650;9.612;2023-01-16T17:38:31;97031.84;;;7.74;71.36
69796;BME280;57073;45.650;9.612;2023-01-16T17:48:32;97018.00;;;7.82;70.54
69796;BME280;57073;45.650;9.612;2023-01-16T17:58:35;97030.50;;;8.09;70.66
69796;BME280;57073;45.650;9.612;2023-01-16T18:08:52;97039.41;;;8.25;70.77
69796;BME280;57073;45.650;9.612;2023-01-16T18:18:53;97023.59;;;8.18;71.10
69796;BME280;57073;45.650;9.612;2023-01-16T18:28:53;97027.31;;;8.17;70.25
69796;BME280;57073;45.650;9.612;2023-01-16T18:38:54;97024.47;;;8.29;70.33
69796;BME280;57073;45.650;9.612;2023-01-16T18:49:13;97018.56;;;8.22;69.95
69796;BME280;57073;45.650;9.612;2023-01-16T18:59:32;97015.81;;;8.12;71.03
69796;BME280;57073;45.650;9.612;2023-01-16T19:09:53;97004.50;;;7.99;69.89
69796;BME280;57073;45.650;9.612;2023-01-16T19:19:55;97004.47;;;7.94;70.65
69796;BME280;57073;45.650;9.612;2023-01-16T19:29:55;96992.72;;;7.95;70.79
69796;BME280;57073;45.650;9.612;2023-01-16T19:39:55;96986.03;;;7.93;70.83
69796;BME280;57073;45.650;9.612;2023-01-16T19:49:58;96957.09;;;7.79;71.36
69796;BME280;57073;45.650;9.612;2023-01-16T19:59:58;96959.34;;;7.93;72.14
69796;BME280;57073;45.650;9.612;2023-01-16T20:09:59;96954.00;;;7.93;72.18
69796;BME280;57073;45.650;9.612;2023-01-16T20:19:59;96958.88;;;8.06;72.04
69796;BME280;57073;45.650;9.612;2023-01-16T20:30:02;96954.91;;;8.09;71.90
69796;BME280;57073;45.650;9.612;2023-01-16T20:40:05;96958.84;;;8.01;71.40
69796;BME280;57073;45.650;9.612;2023-01-16T20:50:06;96954.66;;;8.15;71.24
69796;BME280;57073;45.650;9.612;2023-01-16T21:00:08;96950.00;;;7.95;70.19
69796;BME280;57073;45.650;9.612;2023-01-16T21:10:10;96925.38;;;7.88;69.52
69796;BME280;57073;45.650;9.612;2023-01-16T21:20:10;96912.28;;;7.86;69.47
69796;BME280;57073;45.650;9.612;2023-01-16T21:30:29;96907.22;;;7.85;70.13
69796;BME280;57073;45.650;9.612;2023-01-16T21:40:29;96925.13;;;7.90;70.94
69796;BME280;57073;45.650;9.612;2023-01-16T21:50:30;96920.78;;;7.78;70.61
69796;BME280;57073;45.650;9.612;2023-01-16T22:00:30;96924.25;;;7.79;70.08
69796;BME280;57073;45.650;9.612;2023-01-16T22:10:31;96923.88;;;7.60;69.21
69796;BME280;57073;45.650;9.612;2023-01-16T22:20:31;96935.31;;;7.55;69.39
69796;BME280;57073;45.650;9.612;2023-01-16T22:30:31;96950.53;;;7.55;69.34
69796;BME280;57073;45.650;9.612;2023-01-16T22:40:32;96945.00;;;7.34;71.18
69796;BME280;57073;45.650;9.612;2023-01-16T22:50:32;96927.50;;;7.48;71.42
69796;BME280;57073;45.650;9.612;2023-01-16T23:00:33;96933.81;;;7.37;72.11
69796;BME280;57073;45.650;9.612;2023-01-16T23:10:33;96914.06;;;7.33;71.28
69796;BME280;57073;45.650;9.612;2023-01-16T23:20:34;96930.44;;;7.15;71.51
69796;BME280;57073;45.650;9.612;2023-01-16T23:30:34;96931.50;;;6.86;72.40
69796;BME280;57073;45.650;9.612;2023-01-16T23:40:34;96925.44;;;6.91;72.49
69796;BME280;57073;45.650;9.612;2023-01-16T23:50:35;96929.91;;;6.63;71.76
